Huvudsida
METAR-TAF:

METAR-TAF

Flygplatser :

Pärnu flygplats

Pärnu, Estland

latitud: 58-25-09N, longitud: 024-28-22E, höjd: 14 m

Aktuellt väderrapport

Denna rapport gjordes för 14 timmar och 14 minuter sedan, klockan 13:50 UTC
Vind 18 kt från sydväst
Temperatur 6°C
Fuktighet 81%
Tryck 999 hPa
Sikt 10 km eller mer
Brutna moln på en höjd av 1500 ft
Mulet på en höjd av 3700 ft

METAR: EEPU 181350Z 23018KT 9999 BKN015 OVC037 06/03 Q0999

Tid: 06:04 (04:04 UTC)


TAF: saknas

Aktuella väderrapporter och prognoser från 4000 flygplatser (METAR- och TAF-rapporter).

De tillgängliga stationerna syns som gula och röda prickar på kartan.

För musen över prickarna för att se namnen på stationerna.

Klicka sedan för att få väderrapporter och prognoser.

För att ändra kartan: Klicka på de gröna knapparna med ett svart kors på för att zooma in; den gröna knappen med ett streck på för att zooma ut; eller på de gröna pilarna för angränsande kartor.


METAR-TAF: